Time;durP1;ratioP1;P1;durP2;ratioP2;P2;SDS_P1;SDS_P2;PMS_P1;PMS_P2;Temp;Humidity;BMP_temperature;BMP_pressure;BME280_temperature;BME280_humidity;BME280_pressure;Samples;Min_cycle;Max_cycle;Signal;HPM_P1;HPM_P2
2021/01/08 00:00:49;;;;;;;17.98;11.27;;;3.10;99.90;;;;;;5023133;28;20299;-70
2021/01/08 00:03:35;;;;;;;21.73;12.90;;;3.10;99.90;;;;;;5031421;28;20209;-72
2021/01/08 00:06:20;;;;;;;19.05;11.75;;;3.10;99.90;;;;;;5026456;28;20252;-72
2021/01/08 00:09:06;;;;;;;18.08;12.43;;;3.10;99.90;;;;;;5027906;28;20587;-71
2021/01/08 00:11:55;;;;;;;19.65;12.73;;;3.10;99.90;;;;;;5028523;28;20225;-71
2021/01/08 00:14:40;;;;;;;19.20;12.15;;;3.00;99.90;;;;;;5026243;28;20257;-70
2021/01/08 00:17:26;;;;;;;20.58;13.88;;;3.00;99.90;;;;;;5022737;28;20208;-72
2021/01/08 00:20:12;;;;;;;19.17;12.27;;;3.00;99.90;;;;;;5026396;28;20211;-72
2021/01/08 00:22:57;;;;;;;17.15;11.43;;;3.00;99.90;;;;;;5027313;28;20205;-69
2021/01/08 00:25:42;;;;;;;20.92;13.13;;;3.00;99.90;;;;;;5026996;28;20260;-68
2021/01/08 00:28:27;;;;;;;22.42;12.02;;;3.00;99.90;;;;;;5025151;28;20236;-71
2021/01/08 00:31:12;;;;;;;15.05;10.88;;;3.10;99.90;;;;;;5021240;28;20280;-70
2021/01/08 00:33:57;;;;;;;19.17;11.48;;;3.00;99.90;;;;;;5027283;28;20202;-72
2021/01/08 00:36:51;;;;;;;19.60;12.13;;;3.00;99.90;;;;;;5025448;28;20272;-70
2021/01/08 00:39:36;;;;;;;20.65;13.25;;;2.90;99.90;;;;;;5018691;28;20230;-72
2021/01/08 00:42:22;;;;;;;16.92;11.45;;;2.90;99.90;;;;;;5027315;28;20232;-72
2021/01/08 00:45:08;;;;;;;23.40;13.80;;;2.90;99.90;;;;;;5021487;28;20201;-72
2021/01/08 00:47:53;;;;;;;18.15;12.18;;;3.00;99.90;;;;;;5026664;28;20218;-72
2021/01/08 00:50:38;;;;;;;18.15;12.20;;;3.00;99.90;;;;;;5023704;28;20575;-71
2021/01/08 00:53:24;;;;;;;18.27;12.05;;;3.00;99.90;;;;;;5025140;28;20214;-72
2021/01/08 00:56:17;;;;;;;25.45;11.63;;;3.00;99.90;;;;;;5026165;28;20752;-71
2021/01/08 00:59:03;;;;;;;20.15;12.60;;;3.00;99.90;;;;;;5021954;28;20306;-73
2021/01/08 01:01:48;;;;;;;18.67;12.23;;;3.00;99.90;;;;;;5023535;28;20778;-72
2021/01/08 01:04:33;;;;;;;19.17;12.88;;;3.10;99.90;;;;;;5025143;28;20245;-72
2021/01/08 01:07:18;;;;;;;18.38;11.75;;;3.10;99.90;;;;;;5021712;28;20202;-69
2021/01/08 01:10:06;;;;;;;22.58;10.90;;;3.20;99.90;;;;;;5021366;28;20217;-72
2021/01/08 01:12:52;;;;;;;21.55;11.82;;;3.20;99.90;;;;;;5030174;28;20241;-72
2021/01/08 01:15:37;;;;;;;17.83;11.68;;;3.00;99.90;;;;;;5024949;28;20344;-70
2021/01/08 01:18:22;;;;;;;15.98;10.70;;;3.10;99.90;;;;;;5026964;28;20260;-71
2021/01/08 01:21:08;;;;;;;18.98;11.07;;;3.10;99.90;;;;;;5022915;28;20285;-71
2021/01/08 01:23:53;;;;;;;20.73;11.93;;;3.10;99.90;;;;;;5020107;28;20272;-71
2021/01/08 01:26:39;;;;;;;19.02;12.25;;;3.20;99.90;;;;;;5024521;28;20197;-71
2021/01/08 01:29:24;;;;;;;18.97;11.77;;;3.20;99.90;;;;;;5002922;28;687201;-68
2021/01/08 01:32:10;;;;;;;15.60;11.05;;;3.20;99.90;;;;;;5023435;28;20229;-69
2021/01/08 01:34:55;;;;;;;19.65;11.07;;;3.20;99.90;;;;;;5022151;28;20319;-69
2021/01/08 01:37:40;;;;;;;16.92;10.88;;;3.20;99.90;;;;;;5019705;28;20260;-72
2021/01/08 01:40:25;;;;;;;17.55;11.07;;;3.20;99.90;;;;;;5020473;28;20233;-70
2021/01/08 01:43:11;;;;;;;20.80;12.73;;;3.20;99.90;;;;;;5022645;28;20202;-71
2021/01/08 01:45:56;;;;;;;20.55;12.45;;;3.20;99.90;;;;;;5018813;28;20237;-72
2021/01/08 01:48:41;;;;;;;17.50;11.57;;;3.20;99.90;;;;;;5023173;28;20201;-71
2021/01/08 01:51:27;;;;;;;15.93;11.02;;;3.10;99.90;;;;;;5027018;28;20279;-72
2021/01/08 01:54:12;;;;;;;17.58;11.82;;;3.10;99.90;;;;;;5026396;28;20209;-72
2021/01/08 01:56:58;;;;;;;17.55;10.13;;;3.00;99.90;;;;;;5018756;28;20205;-72
2021/01/08 01:59:44;;;;;;;18.20;10.70;;;3.10;99.90;;;;;;5020594;28;20731;-72
2021/01/08 02:02:34;;;;;;;28.75;12.13;;;2.90;99.90;;;;;;5023271;28;20293;-71
2021/01/08 02:05:21;;;;;;;18.40;10.82;;;2.80;99.90;;;;;;5023194;28;20834;-72
2021/01/08 02:08:09;;;;;;;15.55;9.85;;;2.90;99.90;;;;;;5026154;28;20294;-72
2021/01/08 02:10:58;;;;;;;15.00;9.73;;;3.00;99.90;;;;;;5025180;28;20226;-71
2021/01/08 02:13:50;;;;;;;17.60;11.57;;;3.10;99.90;;;;;;5022347;28;20925;-73
2021/01/08 02:16:38;;;;;;;17.60;10.18;;;3.00;99.90;;;;;;5025363;28;20213;-70
2021/01/08 02:19:27;;;;;;;13.85;9.55;;;3.00;99.90;;;;;;5024995;28;20247;-70
2021/01/08 02:22:19;;;;;;;17.17;10.23;;;2.90;99.90;;;;;;5024886;28;20262;-72
2021/01/08 02:25:13;;;;;;;16.20;10.55;;;2.90;99.90;;;;;;5019995;28;20198;-70
2021/01/08 02:28:23;;;;;;;15.48;9.80;;;2.90;99.90;;;;;;5024892;28;20206;-72
2021/01/08 02:31:09;;;;;;;15.43;9.98;;;2.90;99.90;;;;;;5021505;28;20225;-68
2021/01/08 02:33:54;;;;;;;16.85;11.00;;;2.90;99.90;;;;;;5020894;28;20293;-72
2021/01/08 02:36:44;;;;;;;14.98;10.45;;;3.00;99.90;;;;;;5019289;28;20574;-69
2021/01/08 02:39:30;;;;;;;17.75;9.80;;;2.90;99.90;;;;;;5021206;28;20209;-71
2021/01/08 02:42:16;;;;;;;14.90;9.68;;;2.90;99.90;;;;;;5023286;28;20225;-70
2021/01/08 02:45:01;;;;;;;17.95;10.68;;;2.90;99.90;;;;;;5019333;28;20208;-71
2021/01/08 02:47:46;;;;;;;15.27;10.18;;;2.70;99.90;;;;;;5024450;28;20557;-71
2021/01/08 02:50:32;;;;;;;12.82;9.70;;;2.70;99.90;;;;;;5025537;28;20775;-70
2021/01/08 02:53:21;;;;;;;14.90;9.88;;;2.70;99.90;;;;;;5024545;28;20241;-71
2021/01/08 02:56:10;;;;;;;16.27;10.25;;;2.70;99.90;;;;;;5022379;28;20230;-71
2021/01/08 02:58:56;;;;;;;19.02;10.73;;;2.70;99.90;;;;;;5018190;28;20209;-72
2021/01/08 03:01:43;;;;;;;15.45;10.07;;;2.70;99.90;;;;;;5023621;28;20229;-72
2021/01/08 03:04:28;;;;;;;16.45;10.43;;;2.80;99.90;;;;;;5020351;28;20945;-71
2021/01/08 03:07:13;;;;;;;17.90;11.45;;;2.70;99.90;;;;;;5017875;28;20237;-72
2021/01/08 03:09:59;;;;;;;17.13;9.75;;;2.70;99.90;;;;;;5017585;28;20217;-72
2021/01/08 03:12:54;;;;;;;15.93;10.10;;;2.70;99.90;;;;;;5028186;28;20671;-70
2021/01/08 03:15:40;;;;;;;16.40;10.30;;;2.80;99.90;;;;;;5023364;28;20225;-72
2021/01/08 03:18:25;;;;;;;20.20;11.00;;;2.80;99.90;;;;;;5025869;28;20807;-70
2021/01/08 03:21:10;;;;;;;16.00;10.80;;;2.70;99.90;;;;;;5022841;28;20225;-71
2021/01/08 03:23:55;;;;;;;14.55;10.25;;;2.70;99.90;;;;;;5023185;28;20227;-70
2021/01/08 03:26:40;;;;;;;17.80;10.13;;;2.80;99.90;;;;;;5023759;28;20241;-71
2021/01/08 03:29:25;;;;;;;14.20;9.50;;;2.80;99.90;;;;;;5021684;28;20272;-71
2021/01/08 03:32:12;;;;;;;18.33;9.95;;;2.80;99.90;;;;;;5025111;28;20221;-69
2021/01/08 03:34:57;;;;;;;15.60;9.57;;;2.90;99.90;;;;;;5024472;28;20747;-69
2021/01/08 03:37:42;;;;;;;15.98;9.65;;;2.90;99.90;;;;;;5025673;28;20205;-69
2021/01/08 03:40:27;;;;;;;15.23;10.45;;;2.80;99.90;;;;;;5026486;28;20225;-70
2021/01/08 03:43:12;;;;;;;17.92;10.82;;;2.80;99.90;;;;;;5027599;28;20706;-69
2021/01/08 03:45:58;;;;;;;16.55;9.75;;;2.80;99.90;;;;;;5024260;28;20819;-72
2021/01/08 03:48:45;;;;;;;16.27;10.95;;;2.80;99.90;;;;;;5021892;28;20281;-70
2021/01/08 03:51:30;;;;;;;19.20;11.05;;;2.70;99.90;;;;;;5024434;28;20233;-69
2021/01/08 03:54:15;;;;;;;14.05;10.13;;;2.60;99.90;;;;;;5024559;28;20284;-71
2021/01/08 03:57:00;;;;;;;17.65;9.90;;;2.70;99.90;;;;;;5021063;28;20205;-70
2021/01/08 03:59:45;;;;;;;14.75;10.10;;;2.70;99.90;;;;;;5020328;28;20248;-71
2021/01/08 04:02:31;;;;;;;19.35;11.20;;;2.60;99.90;;;;;;5020805;28;20217;-69
2021/01/08 04:05:17;;;;;;;16.30;11.13;;;2.60;99.90;;;;;;5019642;28;20276;-72
2021/01/08 04:08:02;;;;;;;16.77;10.80;;;2.60;99.90;;;;;;5019680;28;20249;-72
2021/01/08 04:10:47;;;;;;;17.13;11.05;;;2.70;99.90;;;;;;5025767;28;20748;-70
2021/01/08 04:13:32;;;;;;;17.60;11.05;;;2.80;99.90;;;;;;5018689;28;20882;-71
2021/01/08 04:16:17;;;;;;;17.08;11.18;;;2.60;99.90;;;;;;5021927;28;21193;-71
2021/01/08 04:19:03;;;;;;;15.70;10.70;;;2.60;99.90;;;;;;5022264;28;20248;-71
2021/01/08 04:21:50;;;;;;;27.05;11.50;;;2.50;99.90;;;;;;5025582;28;20276;-71
2021/01/08 04:24:35;;;;;;;14.70;9.85;;;2.60;99.90;;;;;;5025693;28;20240;-70
2021/01/08 04:27:20;;;;;;;15.20;10.00;;;2.70;99.90;;;;;;5024135;28;20261;-70
2021/01/08 04:30:06;;;;;;;14.55;10.25;;;2.70;99.90;;;;;;5022295;28;20225;-70
2021/01/08 04:32:51;;;;;;;18.10;11.02;;;2.70;99.90;;;;;;5027786;28;20204;-71
2021/01/08 04:35:36;;;;;;;16.48;9.65;;;2.70;99.90;;;;;;5027485;28;20225;-70
2021/01/08 04:38:22;;;;;;;16.17;11.70;;;2.80;99.90;;;;;;5025954;28;20582;-71
2021/01/08 04:41:08;;;;;;;18.95;11.30;;;2.60;99.90;;;;;;5023658;28;20218;-71
2021/01/08 04:43:53;;;;;;;17.00;11.10;;;2.50;99.90;;;;;;5024958;28;20676;-72
2021/01/08 04:46:39;;;;;;;15.68;10.10;;;2.50;99.90;;;;;;5024418;28;20198;-71
2021/01/08 04:49:24;;;;;;;17.70;9.95;;;2.60;99.90;;;;;;5028288;28;20205;-72
2021/01/08 04:52:11;;;;;;;17.38;10.15;;;2.60;99.90;;;;;;5027254;28;20261;-71
2021/01/08 04:54:57;;;;;;;19.60;10.80;;;2.70;99.90;;;;;;5023988;28;20690;-69
2021/01/08 04:57:46;;;;;;;18.08;11.15;;;2.60;99.90;;;;;;5024096;28;20274;-71
2021/01/08 05:00:32;;;;;;;14.23;9.10;;;2.70;99.90;;;;;;5028607;28;20720;-71
2021/01/08 05:03:17;;;;;;;15.07;11.00;;;2.80;99.90;;;;;;5027702;28;20214;-71
2021/01/08 05:06:02;;;;;;;16.70;11.48;;;2.80;99.90;;;;;;5023888;28;20207;-72
2021/01/08 05:08:47;;;;;;;18.90;11.05;;;2.80;99.90;;;;;;5020275;28;20232;-72
2021/01/08 05:11:33;;;;;;;17.67;11.50;;;2.90;99.90;;;;;;5024550;28;20233;-69
2021/01/08 05:14:19;;;;;;;22.95;11.50;;;2.90;99.90;;;;;;5021012;28;20269;-72
2021/01/08 05:17:04;;;;;;;13.68;9.68;;;2.90;99.90;;;;;;5025267;28;20336;-72
2021/01/08 05:19:49;;;;;;;16.67;11.15;;;2.90;99.90;;;;;;5017767;28;20229;-72
2021/01/08 05:22:34;;;;;;;17.33;10.05;;;2.90;99.90;;;;;;5018116;28;20205;-71
2021/01/08 05:25:19;;;;;;;18.05;11.40;;;2.80;99.90;;;;;;5023775;28;20201;-71
2021/01/08 05:28:07;;;;;;;16.25;10.23;;;2.80;99.90;;;;;;5023572;28;20201;-72
2021/01/08 05:30:52;;;;;;;18.80;11.85;;;2.80;99.90;;;;;;5021900;28;20320;-72
2021/01/08 05:33:37;;;;;;;19.98;10.98;;;2.70;99.90;;;;;;5018394;28;20259;-70
2021/01/08 05:36:23;;;;;;;15.05;10.70;;;2.60;99.90;;;;;;5018384;28;20230;-70
2021/01/08 05:39:08;;;;;;;15.70;11.15;;;2.60;99.90;;;;;;5025030;28;20202;-71
2021/01/08 05:41:54;;;;;;;20.30;11.25;;;2.60;99.90;;;;;;5028041;28;20225;-70
2021/01/08 05:44:40;;;;;;;16.25;11.23;;;2.70;99.90;;;;;;5025635;28;20210;-72
2021/01/08 05:47:26;;;;;;;19.40;10.95;;;2.70;99.90;;;;;;5025825;28;20213;-72
2021/01/08 05:50:14;;;;;;;18.45;11.95;;;2.60;99.90;;;;;;5022669;28;20225;-72
2021/01/08 05:53:04;;;;;;;16.98;11.15;;;2.60;99.90;;;;;;5026176;28;20190;-72
2021/01/08 05:55:50;;;;;;;16.33;10.88;;;2.60;99.90;;;;;;5019702;28;20222;-71
2021/01/08 05:58:35;;;;;;;19.23;11.57;;;2.60;99.90;;;;;;5028042;28;20289;-71
2021/01/08 06:01:21;;;;;;;18.02;11.98;;;2.60;99.90;;;;;;5017767;28;20319;-72
2021/01/08 06:04:07;;;;;;;18.58;11.05;;;2.70;99.90;;;;;;5024539;28;20237;-71
2021/01/08 06:06:52;;;;;;;19.10;12.68;;;2.60;99.90;;;;;;5026397;28;20193;-72
2021/01/08 06:09:37;;;;;;;17.73;11.25;;;2.50;99.90;;;;;;5026959;28;20209;-72
2021/01/08 06:12:22;;;;;;;15.02;10.65;;;2.50;99.90;;;;;;5031520;28;20303;-72
2021/01/08 06:15:12;;;;;;;17.20;10.70;;;2.60;99.90;;;;;;5017496;28;20221;-72
2021/01/08 06:17:59;;;;;;;19.67;11.52;;;2.60;99.90;;;;;;5023098;28;20217;-69
2021/01/08 06:20:44;;;;;;;18.08;10.88;;;2.50;99.90;;;;;;5018683;28;20224;-72
2021/01/08 06:23:40;;;;;;;19.50;10.70;;;2.50;99.90;;;;;;5025229;28;20248;-69
2021/01/08 06:26:29;;;;;;;16.35;10.63;;;2.60;99.90;;;;;;5020445;28;20201;-69
2021/01/08 06:29:20;;;;;;;16.63;10.63;;;2.60;99.90;;;;;;5018973;28;20222;-72
2021/01/08 06:32:13;;;;;;;17.00;10.20;;;2.60;99.90;;;;;;5023414;28;20321;-69
2021/01/08 06:35:05;;;;;;;16.67;11.10;;;2.60;99.90;;;;;;5023634;28;20787;-70
2021/01/08 06:37:57;;;;;;;18.77;11.18;;;2.50;99.90;;;;;;5023022;28;20209;-72
2021/01/08 06:40:49;;;;;;;18.85;11.18;;;2.50;99.90;;;;;;5019519;28;20298;-69
2021/01/08 06:43:37;;;;;;;20.67;12.48;;;2.50;99.90;;;;;;5016692;28;20227;-71
2021/01/08 06:46:33;;;;;;;19.13;11.73;;;2.50;99.90;;;;;;5017411;28;20222;-70
2021/01/08 06:49:20;;;;;;;18.38;12.07;;;2.50;99.90;;;;;;5023943;28;21285;-71
2021/01/08 06:52:06;;;;;;;18.23;11.75;;;2.60;99.90;;;;;;5022848;28;20237;-72
2021/01/08 06:54:53;;;;;;;17.13;10.48;;;2.60;99.90;;;;;;5025377;28;20583;-71
2021/01/08 06:57:48;;;;;;;16.60;10.80;;;2.60;99.90;;;;;;5022566;28;20239;-70
2021/01/08 07:00:34;;;;;;;16.33;11.05;;;2.60;99.90;;;;;;5022577;28;20245;-71
2021/01/08 07:03:22;;;;;;;17.60;10.93;;;2.60;99.90;;;;;;5027253;28;20598;-72
2021/01/08 07:06:08;;;;;;;21.05;13.27;;;2.60;99.90;;;;;;5019730;28;20213;-72
2021/01/08 07:08:54;;;;;;;24.83;15.68;;;2.60;99.90;;;;;;5023570;28;20256;-72
2021/01/08 07:11:39;;;;;;;20.48;12.70;;;2.60;99.90;;;;;;5023317;28;20347;-72
2021/01/08 07:14:25;;;;;;;23.17;15.13;;;2.60;99.90;;;;;;5022596;28;20256;-71
2021/01/08 07:17:12;;;;;;;18.85;12.02;;;2.70;99.90;;;;;;5026424;28;20216;-72
2021/01/08 07:20:00;;;;;;;17.80;11.73;;;2.70;99.90;;;;;;5022298;28;20383;-72
2021/01/08 07:22:52;;;;;;;14.63;11.10;;;2.60;99.90;;;;;;5022748;28;20711;-70
2021/01/08 07:25:40;;;;;;;16.48;11.27;;;2.60;99.90;;;;;;5023492;28;20952;-71
2021/01/08 07:28:25;;;;;;;17.27;10.93;;;2.70;99.90;;;;;;5024017;28;20812;-70
2021/01/08 07:31:11;;;;;;;18.30;12.70;;;2.70;99.90;;;;;;5016482;28;20771;-68
2021/01/08 07:33:58;;;;;;;16.00;11.23;;;2.80;99.90;;;;;;5020622;28;20209;-72
2021/01/08 07:36:54;;;;;;;17.88;10.73;;;2.80;99.90;;;;;;5018017;28;20316;-70
2021/01/08 07:39:41;;;;;;;13.85;9.82;;;2.70;99.90;;;;;;5018366;28;20205;-72
2021/01/08 07:42:34;;;;;;;13.35;9.98;;;2.70;99.90;;;;;;5024047;28;20589;-70
2021/01/08 07:45:20;;;;;;;15.23;10.70;;;2.60;99.90;;;;;;5025802;28;20300;-72
2021/01/08 07:48:16;;;;;;;15.43;10.07;;;2.60;99.90;;;;;;5025649;28;20209;-71
2021/01/08 07:51:03;;;;;;;13.60;10.30;;;2.50;99.90;;;;;;5022728;28;20232;-71
2021/01/08 07:53:50;;;;;;;16.58;11.43;;;2.60;99.90;;;;;;5022849;28;20202;-71
2021/01/08 07:56:35;;;;;;;16.25;10.85;;;2.60;99.90;;;;;;5026049;28;20249;-71
2021/01/08 07:59:29;;;;;;;17.08;11.73;;;2.60;99.90;;;;;;5025378;28;20209;-69
2021/01/08 08:02:14;;;;;;;19.48;12.95;;;2.70;99.90;;;;;;5028668;28;20317;-72
2021/01/08 08:04:59;;;;;;;16.83;11.95;;;2.70;99.90;;;;;;5026022;28;20217;-71
2021/01/08 08:07:44;;;;;;;15.55;11.52;;;2.80;99.90;;;;;;5021794;28;20823;-72
2021/01/08 08:10:31;;;;;;;20.25;12.52;;;2.70;99.90;;;;;;5026935;28;20635;-71
2021/01/08 08:13:16;;;;;;;18.85;11.90;;;2.80;99.90;;;;;;5026190;28;20320;-72
2021/01/08 08:16:03;;;;;;;16.92;12.48;;;2.70;99.90;;;;;;5023555;28;20249;-72
2021/01/08 08:18:52;;;;;;;16.70;12.75;;;2.70;99.90;;;;;;5017756;28;20205;-72
2021/01/08 08:21:38;;;;;;;18.52;12.02;;;2.70;99.90;;;;;;5020495;28;20233;-70
2021/01/08 08:24:27;;;;;;;17.80;13.65;;;2.70;99.90;;;;;;5021639;28;20218;-73
2021/01/08 08:27:16;;;;;;;16.38;12.68;;;2.80;99.90;;;;;;5028148;28;20627;-70
2021/01/08 08:30:14;;;;;;;17.63;13.25;;;2.90;99.90;;;;;;5024774;28;20253;-72
2021/01/08 08:33:00;;;;;;;14.32;11.32;;;2.90;99.90;;;;;;5017673;28;20197;-71
2021/01/08 08:35:46;;;;;;;15.13;11.15;;;2.90;99.90;;;;;;5019578;28;21034;-72
2021/01/08 08:38:32;;;;;;;15.95;12.73;;;2.70;99.90;;;;;;5024433;28;20340;-71
2021/01/08 08:41:17;;;;;;;15.43;12.23;;;2.70;99.90;;;;;;5028842;28;20648;-72
2021/01/08 08:44:04;;;;;;;17.33;12.82;;;2.80;99.90;;;;;;5020474;28;20739;-71
2021/01/08 08:46:51;;;;;;;19.17;12.50;;;2.80;99.90;;;;;;5023895;28;20197;-72
2021/01/08 08:49:39;;;;;;;18.75;12.05;;;2.80;99.90;;;;;;5025797;28;20689;-72
2021/01/08 08:52:27;;;;;;;15.43;11.55;;;2.70;99.90;;;;;;5022999;28;20229;-71
2021/01/08 08:55:26;;;;;;;22.15;12.10;;;2.70;99.90;;;;;;5027545;28;20301;-72
2021/01/08 08:58:12;;;;;;;17.10;11.85;;;2.60;99.90;;;;;;5024284;28;20344;-72
2021/01/08 09:00:57;;;;;;;16.00;12.20;;;2.70;99.90;;;;;;5020529;28;20248;-71
2021/01/08 09:03:42;;;;;;;17.00;12.02;;;2.70;99.90;;;;;;5020878;28;20241;-72
2021/01/08 09:06:30;;;;;;;19.42;14.10;;;2.60;99.90;;;;;;5030035;28;20198;-69
2021/01/08 09:09:21;;;;;;;17.90;12.05;;;2.70;99.90;;;;;;5028471;28;20213;-73
2021/01/08 09:12:25;;;;;;;14.00;10.43;;;2.70;99.90;;;;;;5019957;28;20936;-72
2021/01/08 09:15:18;;;;;;;14.55;11.13;;;2.60;99.90;;;;;;5022479;28;20630;-72
2021/01/08 09:18:11;;;;;;;13.98;10.68;;;2.60;99.90;;;;;;5022250;28;20704;-69
2021/01/08 09:21:02;;;;;;;16.00;11.95;;;2.60;99.90;;;;;;5021864;28;20273;-71
2021/01/08 09:23:49;;;;;;;14.32;10.70;;;2.70;99.90;;;;;;5025999;28;20654;-72
2021/01/08 09:26:35;;;;;;;15.80;11.35;;;2.70;99.90;;;;;;5020997;28;20768;-72
2021/01/08 09:29:31;;;;;;;14.30;9.95;;;2.60;99.90;;;;;;5026192;28;20241;-72
2021/01/08 09:32:30;;;;;;;16.92;11.65;;;2.70;99.90;;;;;;5023741;28;20260;-71
2021/01/08 09:35:15;;;;;;;16.35;10.77;;;2.60;99.90;;;;;;5025044;28;20293;-72
2021/01/08 09:38:02;;;;;;;15.48;10.82;;;2.60;99.90;;;;;;5026387;28;20214;-71
2021/01/08 09:40:49;;;;;;;15.75;10.55;;;2.70;99.90;;;;;;5021502;28;20244;-72
2021/01/08 09:43:33;;;;;;;16.08;11.88;;;2.70;99.90;;;;;;5019726;28;20299;-72
2021/01/08 09:46:19;;;;;;;16.15;12.10;;;2.70;99.90;;;;;;5024192;28;20268;-71
2021/01/08 09:49:07;;;;;;;26.65;17.40;;;2.80;99.90;;;;;;5023426;28;20206;-72
2021/01/08 09:52:03;;;;;;;15.68;11.48;;;2.80;99.90;;;;;;5021214;28;20236;-71
2021/01/08 09:54:49;;;;;;;15.07;11.27;;;2.80;99.90;;;;;;5023242;28;20226;-72
2021/01/08 09:57:36;;;;;;;14.40;11.23;;;2.70;99.90;;;;;;5023467;28;20209;-72
2021/01/08 10:00:27;;;;;;;15.45;11.68;;;2.70;99.90;;;;;;5025919;28;20248;-71
2021/01/08 10:03:18;;;;;;;13.77;10.10;;;2.80;99.90;;;;;;5026877;28;20271;-72
2021/01/08 10:06:09;;;;;;;12.35;9.68;;;2.90;99.90;;;;;;5022688;28;20333;-71
2021/01/08 10:09:02;;;;;;;16.95;11.02;;;2.90;99.90;;;;;;5019120;28;20209;-70
2021/01/08 10:11:58;;;;;;;16.95;10.93;;;2.80;99.90;;;;;;5026553;28;20244;-71
2021/01/08 10:14:44;;;;;;;14.32;11.43;;;2.90;99.90;;;;;;5021450;28;20201;-69
2021/01/08 10:17:29;;;;;;;16.95;11.98;;;3.00;99.90;;;;;;5024431;28;20585;-72
2021/01/08 10:20:16;;;;;;;21.27;12.23;;;2.80;99.90;;;;;;5021089;28;20221;-69
2021/01/08 10:23:01;;;;;;;16.00;12.27;;;2.80;99.90;;;;;;5024588;28;20762;-72
2021/01/08 10:25:46;;;;;;;16.50;12.38;;;2.80;99.90;;;;;;5022265;28;20206;-72
2021/01/08 10:28:32;;;;;;;16.25;11.77;;;2.90;99.90;;;;;;5026401;28;20209;-72
2021/01/08 10:31:18;;;;;;;17.52;12.40;;;2.80;99.90;;;;;;5025438;28;20608;-70
2021/01/08 10:34:03;;;;;;;17.13;12.38;;;2.80;99.90;;;;;;5022723;28;20200;-72
2021/01/08 10:36:48;;;;;;;17.83;12.65;;;2.70;99.90;;;;;;5019148;28;20225;-69
2021/01/08 10:39:33;;;;;;;19.30;13.88;;;2.80;99.90;;;;;;5021687;28;20585;-70
2021/01/08 10:42:19;;;;;;;21.00;14.88;;;2.90;99.90;;;;;;5029426;28;20225;-71
2021/01/08 10:45:05;;;;;;;20.25;13.63;;;2.90;99.90;;;;;;5022843;28;20391;-72
2021/01/08 10:47:51;;;;;;;18.27;12.32;;;2.90;99.90;;;;;;5023428;28;20205;-70
2021/01/08 10:50:36;;;;;;;17.05;12.70;;;2.90;99.90;;;;;;5022388;28;20244;-71
2021/01/08 10:53:21;;;;;;;16.33;12.00;;;2.80;99.90;;;;;;5023673;28;20663;-71
2021/01/08 10:56:06;;;;;;;18.00;12.82;;;2.80;99.90;;;;;;5021682;28;20225;-72
2021/01/08 10:58:51;;;;;;;16.95;12.95;;;2.90;99.90;;;;;;5021304;28;20221;-70
2021/01/08 11:01:40;;;;;;;19.25;13.40;;;2.80;99.90;;;;;;5018159;28;20915;-72
2021/01/08 11:04:26;;;;;;;14.13;11.20;;;2.90;99.90;;;;;;5022732;28;20206;-71
2021/01/08 11:07:11;;;;;;;18.08;13.07;;;3.00;99.90;;;;;;5019731;28;20266;-72
2021/01/08 11:09:56;;;;;;;16.70;13.35;;;3.10;99.90;;;;;;5025616;28;20226;-71
2021/01/08 11:12:41;;;;;;;17.80;13.68;;;3.20;99.90;;;;;;5020152;28;20205;-72
2021/01/08 11:15:26;;;;;;;16.60;13.20;;;3.10;99.90;;;;;;5023093;28;20284;-72
2021/01/08 11:18:11;;;;;;;18.27;13.00;;;3.10;99.90;;;;;;5022827;28;20261;-73
2021/01/08 11:20:57;;;;;;;14.90;11.43;;;3.10;99.90;;;;;;5024442;28;20309;-71
2021/01/08 11:23:42;;;;;;;18.45;13.80;;;3.00;99.90;;;;;;5018059;28;20205;-71
2021/01/08 11:26:28;;;;;;;20.65;12.73;;;3.00;99.90;;;;;;5020002;28;20265;-72
2021/01/08 11:29:13;;;;;;;16.95;13.05;;;2.90;99.90;;;;;;5023301;28;20242;-70
2021/01/08 11:31:59;;;;;;;19.80;13.25;;;3.00;99.90;;;;;;5022099;28;20463;-71
2021/01/08 11:34:44;;;;;;;19.52;12.50;;;3.00;99.90;;;;;;5027103;28;20340;-70
2021/01/08 11:37:31;;;;;;;15.75;12.25;;;3.00;99.90;;;;;;5026013;28;20256;-71
2021/01/08 11:40:17;;;;;;;19.50;13.55;;;3.00;99.90;;;;;;5027398;28;20926;-71
2021/01/08 11:43:03;;;;;;;17.15;12.85;;;2.90;99.90;;;;;;5026212;28;20267;-70
2021/01/08 11:45:48;;;;;;;20.60;14.40;;;3.00;99.90;;;;;;5025809;28;20728;-72
2021/01/08 11:48:33;;;;;;;20.10;14.18;;;3.00;99.90;;;;;;5029495;28;20224;-70
2021/01/08 11:51:19;;;;;;;20.70;14.60;;;2.90;99.90;;;;;;5026231;28;20232;-72
2021/01/08 11:54:05;;;;;;;17.15;12.50;;;3.00;99.90;;;;;;5023744;28;20201;-72
2021/01/08 11:56:50;;;;;;;18.23;13.77;;;3.00;99.90;;;;;;5020887;28;20676;-69
2021/01/08 11:59:35;;;;;;;19.70;14.40;;;3.10;99.90;;;;;;5030103;28;20229;-70
2021/01/08 12:02:20;;;;;;;21.70;15.50;;;3.00;99.90;;;;;;5025949;28;20238;-70
2021/01/08 12:05:07;;;;;;;18.17;14.10;;;3.10;99.90;;;;;;5020358;28;20205;-69
2021/01/08 12:07:52;;;;;;;19.75;15.30;;;3.10;99.90;;;;;;5024829;28;20205;-72
2021/01/08 12:10:38;;;;;;;20.70;15.45;;;3.10;99.90;;;;;;5029450;28;20299;-72
2021/01/08 12:13:23;;;;;;;16.83;14.27;;;3.10;99.90;;;;;;5023898;28;20707;-71
2021/01/08 12:16:08;;;;;;;20.35;15.55;;;3.20;99.90;;;;;;5025293;28;20276;-71
2021/01/08 12:18:54;;;;;;;20.85;15.00;;;3.20;99.90;;;;;;5027063;28;20947;-71
2021/01/08 12:21:44;;;;;;;22.55;15.52;;;3.20;99.90;;;;;;5028268;28;20236;-71
2021/01/08 12:24:29;;;;;;;21.25;14.50;;;3.20;99.90;;;;;;5031051;28;20201;-72
2021/01/08 12:27:16;;;;;;;19.90;14.80;;;3.20;99.90;;;;;;5030999;28;20196;-70
2021/01/08 12:30:01;;;;;;;21.13;14.80;;;3.20;99.90;;;;;;5028254;28;20586;-70
2021/01/08 12:32:46;;;;;;;21.60;15.40;;;3.20;99.90;;;;;;5025847;28;20205;-71
2021/01/08 12:35:32;;;;;;;22.65;15.50;;;3.00;99.90;;;;;;5024428;28;20221;-71
2021/01/08 12:38:17;;;;;;;19.65;13.60;;;3.00;99.90;;;;;;5026803;28;20285;-72
2021/01/08 12:41:02;;;;;;;20.30;14.13;;;3.10;99.90;;;;;;5026099;28;20230;-72
2021/01/08 12:43:48;;;;;;;19.63;14.05;;;2.90;99.90;;;;;;5024117;28;20269;-70
2021/01/08 12:46:33;;;;;;;22.30;14.23;;;2.70;99.90;;;;;;5026136;28;20218;-70
2021/01/08 12:49:18;;;;;;;21.20;16.15;;;2.80;99.90;;;;;;5022586;28;20210;-71
2021/01/08 12:52:05;;;;;;;22.48;17.08;;;2.80;99.90;;;;;;5024000;28;20228;-71
2021/01/08 12:54:50;;;;;;;28.17;16.85;;;2.90;99.90;;;;;;5021951;28;20213;-71
2021/01/08 12:57:35;;;;;;;20.65;15.48;;;2.90;99.90;;;;;;5026562;28;20209;-69
2021/01/08 13:00:22;;;;;;;21.67;16.25;;;2.80;99.90;;;;;;5024501;28;20557;-71
2021/01/08 13:03:07;;;;;;;21.73;15.48;;;2.90;99.90;;;;;;5021758;28;20221;-72
2021/01/08 13:05:52;;;;;;;27.23;15.68;;;2.90;99.90;;;;;;5018394;28;20197;-71
2021/01/08 13:08:37;;;;;;;26.13;16.70;;;2.90;99.90;;;;;;5023203;28;20233;-72
2021/01/08 13:11:23;;;;;;;22.48;17.10;;;2.80;99.90;;;;;;5022360;28;20275;-68
2021/01/08 13:14:08;;;;;;;29.73;16.58;;;2.80;99.90;;;;;;5021866;28;20221;-72
2021/01/08 13:16:54;;;;;;;23.40;15.60;;;2.80;99.90;;;;;;5022685;28;20637;-72
2021/01/08 13:19:39;;;;;;;27.38;16.60;;;2.80;99.90;;;;;;5026687;28;20731;-71
2021/01/08 13:22:24;;;;;;;31.95;21.45;;;2.90;99.90;;;;;;5023649;28;20214;-70
2021/01/08 13:25:11;;;;;;;31.60;19.45;;;3.00;99.90;;;;;;5023682;28;20221;-69
2021/01/08 13:27:56;;;;;;;25.77;17.70;;;3.10;99.90;;;;;;5025729;28;20245;-73
2021/01/08 13:30:43;;;;;;;21.58;17.73;;;3.20;99.90;;;;;;5022876;28;20269;-70
2021/01/08 13:33:29;;;;;;;25.55;19.00;;;3.20;99.90;;;;;;5015730;28;20292;-70
2021/01/08 13:36:14;;;;;;;23.85;17.98;;;3.20;99.90;;;;;;5026447;28;20221;-71
2021/01/08 13:38:59;;;;;;;22.23;17.13;;;3.20;99.90;;;;;;5019922;28;20226;-71
2021/01/08 13:41:58;;;;;;;23.98;16.95;;;3.20;99.90;;;;;;5022722;28;20300;-72
2021/01/08 13:44:43;;;;;;;20.65;14.57;;;3.20;99.90;;;;;;5018094;28;20225;-72
2021/01/08 13:47:29;;;;;;;20.13;15.30;;;3.20;99.90;;;;;;5027618;28;20205;-73
2021/01/08 13:50:16;;;;;;;19.90;15.55;;;3.30;99.90;;;;;;5020695;28;20211;-72
2021/01/08 13:53:01;;;;;;;21.60;15.50;;;3.20;99.90;;;;;;5025483;28;20216;-72
2021/01/08 13:55:46;;;;;;;23.60;16.65;;;3.30;99.90;;;;;;5022379;28;20255;-71
2021/01/08 13:58:31;;;;;;;23.85;16.67;;;3.20;99.90;;;;;;5027512;28;20222;-72
2021/01/08 14:01:17;;;;;;;25.15;17.02;;;3.10;99.90;;;;;;5027135;28;20225;-72
2021/01/08 14:04:02;;;;;;;24.30;17.90;;;3.10;99.90;;;;;;5023030;28;20625;-71
2021/01/08 14:06:49;;;;;;;22.65;15.60;;;3.00;99.90;;;;;;5023252;28;20201;-71
2021/01/08 14:09:34;;;;;;;25.20;17.55;;;3.00;99.90;;;;;;5017849;28;20198;-72
2021/01/08 14:12:19;;;;;;;27.30;18.65;;;3.00;99.90;;;;;;5021770;28;20261;-71
2021/01/08 14:15:05;;;;;;;25.05;18.75;;;3.00;99.90;;;;;;5023859;28;20205;-72
2021/01/08 14:17:50;;;;;;;25.55;17.88;;;3.00;99.90;;;;;;5017998;28;20257;-70